createdAt,value
2019-05-21T00:00:43.152Z,99850.87
2019-05-21T00:03:13.430Z,99858.88
2019-05-21T00:05:43.679Z,99849.92
2019-05-21T00:08:13.965Z,99853.48
2019-05-21T00:10:44.231Z,99855.45
2019-05-21T00:13:14.528Z,99854.53
2019-05-21T00:15:44.733Z,99854.88
2019-05-21T00:18:14.983Z,99852.99
2019-05-21T00:20:45.329Z,99853.75
2019-05-21T00:23:15.582Z,99850.52
2019-05-21T00:25:46.083Z,99856.27
2019-05-21T00:28:40.813Z,99859.05
2019-05-21T00:31:46.993Z,99856.18
2019-05-21T00:34:53.310Z,99856.27
2019-05-21T00:37:59.089Z,99869.20
2019-05-21T00:41:06.153Z,99866.88
2019-05-21T00:43:54.238Z,99870.99
2019-05-21T00:46:24.429Z,99878.26
2019-05-21T00:48:54.682Z,99873.47
2019-05-21T00:51:24.856Z,99875.59
2019-05-21T00:53:55.127Z,99877.28
2019-05-21T00:56:25.395Z,99874.27
2019-05-21T00:58:56.560Z,99877.13
2019-05-21T01:01:28.234Z,99886.00
2019-05-21T01:03:58.380Z,99882.27
2019-05-21T01:06:28.605Z,99884.45
2019-05-21T01:08:58.807Z,99882.47
2019-05-21T01:11:28.945Z,99895.25
2019-05-21T01:13:59.093Z,99880.84
2019-05-21T01:16:29.264Z,99874.55
2019-05-21T01:18:59.384Z,99888.78
2019-05-21T01:21:29.584Z,99886.25
2019-05-21T01:23:59.786Z,99889.57
2019-05-21T01:26:30.006Z,99894.13
2019-05-21T01:29:00.094Z,99888.03
2019-05-21T01:31:30.379Z,99884.17
2019-05-21T01:34:00.629Z,99884.27
2019-05-21T01:36:31.858Z,99880.65
2019-05-21T01:39:02.576Z,99881.39
2019-05-21T01:41:32.822Z,99880.74
2019-05-21T01:44:03.228Z,99874.25
2019-05-21T01:46:33.384Z,99878.81
2019-05-21T01:49:03.712Z,99891.97
2019-05-21T01:51:33.883Z,99884.14
2019-05-21T01:54:04.124Z,99887.32
2019-05-21T01:56:34.297Z,99877.28
2019-05-21T01:59:05.214Z,99887.21
2019-05-21T02:01:35.354Z,99884.88
2019-05-21T02:04:05.566Z,99886.89
2019-05-21T02:06:35.748Z,99894.42
2019-05-21T02:09:08.144Z,99890.34
2019-05-21T02:11:38.366Z,99885.39
2019-05-21T02:14:08.514Z,99890.83
2019-05-21T02:16:38.769Z,99889.38
2019-05-21T02:19:08.841Z,99899.67
2019-05-21T02:21:39.082Z,99900.86
2019-05-21T02:24:09.280Z,99893.87
2019-05-21T02:26:39.551Z,99897.23
2019-05-21T02:29:09.752Z,99899.28
2019-05-21T02:31:39.936Z,99900.19
2019-05-21T02:34:10.120Z,99897.88
2019-05-21T02:36:40.320Z,99904.04
2019-05-21T02:39:10.455Z,99903.98
2019-05-21T02:41:40.664Z,99906.87
2019-05-21T02:44:10.790Z,99904.53
2019-05-21T02:46:42.441Z,99905.80
2019-05-21T02:49:19.046Z,99907.63
2019-05-21T02:51:51.161Z,99903.52
2019-05-21T02:54:39.471Z,99910.36
2019-05-21T02:56:57.865Z,99918.89
2019-05-21T02:59:27.973Z,99910.66
2019-05-21T03:02:05.913Z,99915.91
2019-05-21T03:04:37.426Z,99916.77
2019-05-21T03:07:20.216Z,99920.73
2019-05-21T03:09:51.720Z,99920.34
2019-05-21T03:12:22.306Z,99925.81
2019-05-21T03:14:54.001Z,99927.94
2019-05-21T03:17:24.217Z,99928.48
2019-05-21T03:19:54.525Z,99931.25
2019-05-21T03:22:35.600Z,99934.09
2019-05-21T03:25:11.234Z,99948.53
2019-05-21T03:27:45.318Z,99942.66
2019-05-21T03:30:16.184Z,99947.52
2019-05-21T03:32:49.661Z,99952.81
2019-05-21T03:35:19.911Z,99954.65
2019-05-21T03:37:50.108Z,99956.24
2019-05-21T03:40:20.258Z,99954.03
2019-05-21T03:42:50.431Z,99958.03
2019-05-21T03:45:20.651Z,99956.11
2019-05-21T03:47:53.846Z,99959.88
2019-05-21T03:50:25.198Z,99957.67
2019-05-21T03:52:55.389Z,99955.40
2019-05-21T03:55:29.911Z,99961.22
2019-05-21T03:58:02.013Z,99954.55
2019-05-21T04:00:32.217Z,99959.88
2019-05-21T04:03:02.350Z,99968.38
2019-05-21T04:05:32.494Z,99959.06
2019-05-21T04:08:02.637Z,99965.97
2019-05-21T04:10:33.321Z,99968.31
2019-05-21T04:13:07.477Z,99972.32
2019-05-21T04:15:58.418Z,99968.55
2019-05-21T04:18:42.964Z,99970.42
2019-05-21T04:21:16.124Z,99973.09
2019-05-21T04:23:47.160Z,99971.44
2019-05-21T04:26:19.137Z,99974.99
2019-05-21T04:28:49.642Z,99980.16
2019-05-21T04:31:19.770Z,99989.91
2019-05-21T04:33:54.839Z,99985.78
2019-05-21T04:36:28.167Z,99994.27
2019-05-21T04:38:59.473Z,100000.03
2019-05-21T04:41:29.781Z,99996.88
2019-05-21T04:44:01.705Z,100000.01
2019-05-21T04:46:32.178Z,100002.23
2019-05-21T04:49:02.388Z,100000.95
2019-05-21T04:51:32.694Z,100008.72
2019-05-21T04:54:05.049Z,100005.75
2019-05-21T04:56:38.605Z,100005.58
2019-05-21T04:59:09.646Z,100004.27
2019-05-21T05:01:40.170Z,100006.45
2019-05-21T05:04:12.028Z,100003.78
2019-05-21T05:06:45.249Z,100016.02
2019-05-21T05:09:17.187Z,100007.48
2019-05-21T05:11:47.425Z,100012.19
2019-05-21T05:14:17.722Z,100009.69
2019-05-21T05:16:48.010Z,100010.05
2019-05-21T05:19:18.407Z,100017.61
2019-05-21T05:21:48.527Z,100026.55
2019-05-21T05:24:18.698Z,100028.20
2019-05-21T05:26:48.868Z,100029.06
2019-05-21T05:29:19.320Z,100033.37
2019-05-21T05:31:50.465Z,100031.42
2019-05-21T05:34:20.606Z,100025.20
2019-05-21T05:36:50.748Z,100031.27
2019-05-21T05:39:21.074Z,100037.84
2019-05-21T05:41:51.400Z,100041.78
2019-05-21T05:44:21.640Z,100050.19
2019-05-21T05:46:51.941Z,100055.66
2019-05-21T05:49:27.487Z,100046.72
2019-05-21T05:51:57.599Z,100043.88
2019-05-21T05:54:27.752Z,100049.69
2019-05-21T05:56:57.888Z,100047.98
2019-05-21T05:59:28.094Z,100055.48
2019-05-21T06:01:58.226Z,100057.48
2019-05-21T06:04:30.493Z,100061.00
2019-05-21T06:07:00.308Z,100057.16
2019-05-21T06:09:30.505Z,100057.93
2019-05-21T06:12:00.686Z,100069.17
2019-05-21T06:14:30.840Z,100070.03
2019-05-21T06:17:02.263Z,100062.08
2019-05-21T06:19:32.743Z,100076.70
2019-05-21T06:22:03.172Z,100070.11
2019-05-21T06:24:33.354Z,100077.48
2019-05-21T06:27:04.504Z,100076.02
2019-05-21T06:29:39.362Z,100077.87
2019-05-21T06:32:07.094Z,100073.25
2019-05-21T06:34:37.420Z,100083.16
2019-05-21T06:37:07.639Z,100073.20
2019-05-21T06:39:37.806Z,100081.58
2019-05-21T06:42:07.998Z,100083.06
2019-05-21T06:44:38.170Z,100087.23
2019-05-21T06:47:09.231Z,100085.13
2019-05-21T06:49:40.463Z,100088.97
2019-05-21T06:52:10.609Z,100104.75
2019-05-21T06:54:40.757Z,100095.57
2019-05-21T06:57:10.941Z,100108.75
2019-05-21T06:59:41.128Z,100104.76
2019-05-21T07:02:11.271Z,100109.30
2019-05-21T07:04:41.456Z,100112.76
2019-05-21T07:07:11.649Z,100116.13
2019-05-21T07:09:41.860Z,100126.48
2019-05-21T07:12:12.026Z,100125.79
2019-05-21T07:14:42.212Z,100127.82
2019-05-21T07:17:12.356Z,100130.97
2019-05-21T07:19:42.528Z,100134.41
2019-05-21T07:22:13.523Z,100137.44
2019-05-21T07:24:43.968Z,100138.38
2019-05-21T07:27:14.678Z,100139.30
2019-05-21T07:29:44.949Z,100150.22
2019-05-21T07:32:15.284Z,100150.78
2019-05-21T07:34:45.606Z,100159.31
2019-05-21T07:37:15.816Z,100158.06
2019-05-21T07:39:46.120Z,100161.94
2019-05-21T07:42:16.317Z,100166.86
2019-05-21T07:44:47.489Z,100167.16
2019-05-21T07:47:18.730Z,100172.98
2019-05-21T07:49:50.448Z,100175.29
2019-05-21T07:52:20.606Z,100175.28
2019-05-21T07:54:51.108Z,100173.67
2019-05-21T07:57:21.958Z,100182.05
2019-05-21T07:59:54.034Z,100182.70
2019-05-21T08:02:24.212Z,100187.06
2019-05-21T08:04:54.408Z,100191.91
2019-05-21T08:07:24.642Z,100187.41
2019-05-21T08:09:56.855Z,100190.98
2019-05-21T08:12:38.292Z,100193.65
2019-05-21T08:15:00.212Z,100195.70
2019-05-21T08:17:33.420Z,100197.16
2019-05-21T08:20:09.341Z,100205.12
2019-05-21T08:22:36.221Z,100204.63
2019-05-21T08:25:07.141Z,100205.89
2019-05-21T08:27:37.426Z,100204.88
2019-05-21T08:30:07.857Z,100208.81
2019-05-21T08:32:38.022Z,100207.81
2019-05-21T08:35:08.271Z,100202.02
2019-05-21T08:37:38.626Z,100214.20
2019-05-21T08:40:09.381Z,100210.88
2019-05-21T08:42:39.578Z,100217.96
2019-05-21T08:45:11.807Z,100222.12
2019-05-21T08:47:42.024Z,100219.91
2019-05-21T08:50:13.025Z,100220.47
2019-05-21T08:52:43.200Z,100218.28
2019-05-21T08:55:13.708Z,100216.14
2019-05-21T08:57:44.388Z,100219.94
2019-05-21T09:00:16.867Z,100221.84
2019-05-21T09:02:47.916Z,100223.70
2019-05-21T09:05:19.040Z,100229.45
2019-05-21T09:07:53.321Z,100226.78
2019-05-21T09:10:22.780Z,100234.88
2019-05-21T09:12:55.129Z,100225.97
2019-05-21T09:15:25.289Z,100228.97
2019-05-21T09:17:55.426Z,100227.55
2019-05-21T09:20:26.173Z,100238.62
2019-05-21T09:22:56.807Z,100234.22
2019-05-21T09:25:27.672Z,100238.47
2019-05-21T09:27:57.864Z,100238.07
2019-05-21T09:30:27.950Z,100248.30
2019-05-21T09:32:58.154Z,100248.83
2019-05-21T09:35:28.360Z,100249.92
2019-05-21T09:37:58.581Z,100248.59
2019-05-21T09:40:31.882Z,100255.22
2019-05-21T09:43:02.235Z,100259.92
2019-05-21T09:45:32.812Z,100256.88
2019-05-21T09:48:03.167Z,100264.25
2019-05-21T09:50:33.354Z,100267.88
2019-05-21T09:53:03.561Z,100265.42
2019-05-21T09:55:33.969Z,100271.56
2019-05-21T09:58:35.361Z,100276.62
2019-05-21T10:01:23.729Z,100278.95
2019-05-21T10:03:56.718Z,100278.19
2019-05-21T10:06:27.109Z,100283.38
2019-05-21T10:08:57.290Z,100283.63
2019-05-21T10:11:28.722Z,100293.89
2019-05-21T10:13:58.842Z,100292.72
2019-05-21T10:16:29.108Z,100294.97
2019-05-21T10:19:00.129Z,100288.36
2019-05-21T10:21:30.746Z,100296.46
2019-05-21T10:24:00.875Z,100297.31
2019-05-21T10:26:31.026Z,100296.40
2019-05-21T10:29:01.243Z,100304.66
2019-05-21T10:31:31.469Z,100311.80
2019-05-21T10:34:01.901Z,100310.83
2019-05-21T10:36:32.077Z,100311.92
2019-05-21T10:39:02.559Z,100318.06
2019-05-21T10:41:34.361Z,100324.09
2019-05-21T10:44:05.231Z,100328.02
2019-05-21T10:46:35.507Z,100327.73
2019-05-21T10:49:06.854Z,100327.05
2019-05-21T10:51:37.104Z,100330.15
2019-05-21T10:54:07.457Z,100334.25
2019-05-21T10:56:48.084Z,100343.27
2019-05-21T10:59:11.942Z,100337.69
2019-05-21T11:02:04.107Z,100339.58
2019-05-21T11:04:45.103Z,100341.36
2019-05-21T11:07:18.283Z,100351.03
2019-05-21T11:09:48.487Z,100350.43
2019-05-21T11:12:18.859Z,100351.45
2019-05-21T11:14:51.669Z,100354.05
2019-05-21T11:17:21.942Z,100359.34
2019-05-21T11:19:53.061Z,100361.79
2019-05-21T11:22:23.305Z,100365.54
2019-05-21T11:24:53.846Z,100371.11
2019-05-21T11:27:24.151Z,100375.31
2019-05-21T11:29:54.457Z,100375.64
2019-05-21T11:32:24.695Z,100373.31
2019-05-21T11:34:57.069Z,100378.41
2019-05-21T11:37:27.404Z,100374.53
2019-05-21T11:39:57.597Z,100379.06
2019-05-21T11:42:27.761Z,100385.41
2019-05-21T11:44:59.602Z,100383.72
2019-05-21T11:47:29.738Z,100391.81
2019-05-21T11:49:59.920Z,100391.25
2019-05-21T11:52:30.189Z,100398.94
2019-05-21T11:55:00.656Z,100399.23
2019-05-21T11:57:30.860Z,100396.14
2019-05-21T12:00:01.274Z,100400.08
2019-05-21T12:02:32.751Z,100397.59
2019-05-21T12:05:02.955Z,100403.09
2019-05-21T12:07:33.319Z,100406.83
2019-05-21T12:10:03.549Z,100410.09
2019-05-21T12:12:35.067Z,100406.41
2019-05-21T12:15:06.755Z,100410.86
2019-05-21T12:17:39.390Z,100412.50
2019-05-21T12:20:11.402Z,100416.84
2019-05-21T12:22:42.457Z,100407.23
2019-05-21T12:25:14.450Z,100419.10
2019-05-21T12:27:44.832Z,100422.59
2019-05-21T12:30:15.771Z,100418.33
2019-05-21T12:32:46.123Z,100422.03
2019-05-21T12:35:16.375Z,100422.69
2019-05-21T12:37:46.759Z,100426.33
2019-05-21T12:40:17.429Z,100428.47
2019-05-21T12:42:47.628Z,100434.81
2019-05-21T12:45:18.048Z,100421.70
2019-05-21T12:47:50.734Z,100428.50
2019-05-21T12:50:22.156Z,100432.83
2019-05-21T12:52:52.319Z,100429.83
2019-05-21T12:55:22.672Z,100435.50
2019-05-21T12:57:53.339Z,100441.27
2019-05-21T13:00:29.318Z,100441.02
2019-05-21T13:02:59.623Z,100442.61
2019-05-21T13:05:29.809Z,100444.70
2019-05-21T13:08:00.783Z,100450.35
2019-05-21T13:10:31.090Z,100448.51
2019-05-21T13:13:01.284Z,100450.87
2019-05-21T13:15:31.526Z,100453.55
2019-05-21T13:18:01.725Z,100456.22
2019-05-21T13:20:35.201Z,100458.21
2019-05-21T13:23:05.467Z,100467.46
2019-05-21T13:25:36.670Z,100460.05
2019-05-21T13:28:07.862Z,100468.95
2019-05-21T13:30:38.025Z,100471.56
2019-05-21T13:33:08.280Z,100469.38
2019-05-21T13:35:38.747Z,100472.30
2019-05-21T13:38:13.188Z,100467.73
2019-05-21T13:40:42.104Z,100469.08
2019-05-21T13:43:12.406Z,100483.53
2019-05-21T13:45:42.680Z,100481.11
2019-05-21T13:48:12.977Z,100476.11
2019-05-21T13:50:43.479Z,100479.62
2019-05-21T13:53:15.765Z,100483.19
2019-05-21T13:55:46.198Z,100479.52
2019-05-21T13:58:17.397Z,100476.11
2019-05-21T14:00:57.086Z,100481.90
2019-05-21T14:03:27.683Z,100482.48
2019-05-21T14:05:57.961Z,100481.52
2019-05-21T14:08:28.322Z,100491.95
2019-05-21T14:10:58.572Z,100490.93
2019-05-21T14:13:30.665Z,100500.44
2019-05-21T14:16:01.206Z,100501.36
2019-05-21T14:18:34.013Z,100505.35
2019-05-21T14:21:04.425Z,100505.42
2019-05-21T14:23:35.076Z,100513.58
2019-05-21T14:26:05.550Z,100507.84
2019-05-21T14:28:36.000Z,100521.08
2019-05-21T14:31:06.212Z,100511.20
2019-05-21T14:33:36.450Z,100515.87
2019-05-21T14:36:06.710Z,100518.36
2019-05-21T14:38:36.912Z,100519.88
2019-05-21T14:41:07.084Z,100516.66
2019-05-21T14:43:37.189Z,100520.03
2019-05-21T14:46:07.407Z,100522.00
2019-05-21T14:48:39.201Z,100522.77
2019-05-21T14:51:13.417Z,100524.81
2019-05-21T14:53:44.400Z,100523.62
2019-05-21T14:56:14.798Z,100517.47
2019-05-21T14:58:44.942Z,100520.88
2019-05-21T15:01:15.162Z,100512.02
2019-05-21T15:03:45.819Z,100518.22
2019-05-21T15:06:18.293Z,100523.88
2019-05-21T15:08:48.539Z,100522.95
2019-05-21T15:11:18.734Z,100518.55
2019-05-21T15:13:48.902Z,100516.95
2019-05-21T15:16:19.262Z,100513.70
2019-05-21T15:18:51.609Z,100514.41
2019-05-21T15:21:27.378Z,100516.16
2019-05-21T15:23:58.211Z,100510.42
2019-05-21T15:26:30.025Z,100506.13
2019-05-21T15:29:01.198Z,100501.72
2019-05-21T15:31:34.480Z,100511.13
2019-05-21T15:34:05.231Z,100513.55
2019-05-21T15:36:35.673Z,100509.06
2019-05-21T15:39:10.384Z,100513.70
2019-05-21T15:41:44.980Z,100514.55
2019-05-21T15:44:21.192Z,100514.07
2019-05-21T15:46:52.131Z,100514.25
2019-05-21T15:49:35.484Z,100519.20
2019-05-21T15:51:54.540Z,100513.97
2019-05-21T15:54:24.835Z,100521.34
2019-05-21T15:56:55.053Z,100510.55
2019-05-21T15:59:27.553Z,100520.02
2019-05-21T16:02:00.038Z,100518.56
2019-05-21T16:04:30.396Z,100524.01
2019-05-21T16:07:00.725Z,100526.20
2019-05-21T16:09:30.921Z,100529.08
2019-05-21T16:12:01.062Z,100515.52
2019-05-21T16:14:31.214Z,100514.34
2019-05-21T16:17:01.331Z,100526.55
2019-05-21T16:19:31.702Z,100529.72
2019-05-21T16:22:03.456Z,100527.87
2019-05-21T16:24:33.717Z,100528.39
2019-05-21T16:27:07.255Z,100535.48
2019-05-21T16:29:38.942Z,100532.37
2019-05-21T16:32:09.031Z,100532.90
2019-05-21T16:34:39.252Z,100534.16
2019-05-21T16:37:09.427Z,100533.83
2019-05-21T16:39:42.106Z,100535.49
2019-05-21T16:42:13.682Z,100528.60
2019-05-21T16:44:43.859Z,100531.77
2019-05-21T16:47:14.374Z,100531.44
2019-05-21T16:49:46.111Z,100532.80
2019-05-21T16:52:17.493Z,100533.35
2019-05-21T16:54:50.941Z,100542.08
2019-05-21T16:57:22.780Z,100542.00
2019-05-21T16:59:53.023Z,100547.50
2019-05-21T17:02:28.922Z,100543.75
2019-05-21T17:04:59.271Z,100546.27
2019-05-21T17:07:29.449Z,100557.44
2019-05-21T17:10:04.534Z,100554.94
2019-05-21T17:12:36.387Z,100543.48
2019-05-21T17:15:08.161Z,100562.41
2019-05-21T17:17:38.413Z,100556.20
2019-05-21T17:20:15.069Z,100556.81
2019-05-21T17:22:54.670Z,100570.66
2019-05-21T17:25:33.024Z,100570.49
2019-05-21T17:28:05.369Z,100575.25
2019-05-21T17:30:37.276Z,100577.86
2019-05-21T17:33:07.657Z,100573.05
2019-05-21T17:35:37.863Z,100583.26
2019-05-21T17:38:11.332Z,100580.96
2019-05-21T17:40:42.188Z,100584.52
2019-05-21T17:43:12.645Z,100591.72
2019-05-21T17:45:43.171Z,100598.88
2019-05-21T17:48:13.879Z,100602.77
2019-05-21T17:50:47.953Z,100608.30
2019-05-21T17:53:20.599Z,100595.14
2019-05-21T17:55:51.010Z,100603.70
2019-05-21T17:58:21.293Z,100611.97
2019-05-21T18:00:58.136Z,100606.26
2019-05-21T18:03:28.587Z,100603.17
2019-05-21T18:05:58.956Z,100603.84
2019-05-21T18:08:29.595Z,100608.30
2019-05-21T18:11:00.632Z,100602.89
2019-05-21T18:13:31.002Z,100607.89
2019-05-21T18:16:01.191Z,100614.20
2019-05-21T18:18:31.444Z,100615.58
2019-05-21T18:21:02.639Z,100629.41
2019-05-21T18:23:32.870Z,100623.34
2019-05-21T18:26:03.411Z,100637.05
2019-05-21T18:28:33.657Z,100627.94
2019-05-21T18:31:08.577Z,100637.36
2019-05-21T18:33:38.975Z,100642.05
2019-05-21T18:36:09.298Z,100643.77
2019-05-21T18:38:43.356Z,100647.73
2019-05-21T18:41:13.987Z,100640.75
2019-05-21T18:43:45.698Z,100645.81
2019-05-21T18:46:15.825Z,100656.36
2019-05-21T18:48:46.152Z,100658.14
2019-05-21T18:51:16.477Z,100661.63
2019-05-21T18:53:46.838Z,100665.94
2019-05-21T18:56:17.545Z,100668.88
2019-05-21T18:58:48.106Z,100669.70
2019-05-21T19:01:18.345Z,100676.68
2019-05-21T19:03:48.572Z,100687.08
2019-05-21T19:06:19.133Z,100689.23
2019-05-21T19:08:49.497Z,100689.73
2019-05-21T19:11:20.172Z,100688.55
2019-05-21T19:13:50.501Z,100701.13
2019-05-21T19:16:20.823Z,100708.47
2019-05-21T19:18:51.051Z,100711.17
2019-05-21T19:21:21.418Z,100720.73
2019-05-21T19:23:51.646Z,100720.45
2019-05-21T19:26:22.197Z,100719.59
2019-05-21T19:28:52.595Z,100720.45
2019-05-21T19:31:22.822Z,100723.81
2019-05-21T19:33:53.269Z,100727.91
2019-05-21T19:36:23.439Z,100724.45
2019-05-21T19:38:56.990Z,100721.50
2019-05-21T19:41:27.181Z,100733.34
2019-05-21T19:43:57.363Z,100740.70
2019-05-21T19:46:29.168Z,100738.89
2019-05-21T19:48:59.309Z,100740.77
2019-05-21T19:51:29.790Z,100743.09
2019-05-21T19:54:05.214Z,100747.94
2019-05-21T19:56:36.532Z,100750.90
2019-05-21T19:59:07.361Z,100749.75
2019-05-21T20:01:44.013Z,100751.94
2019-05-21T20:04:15.493Z,100742.31
2019-05-21T20:06:46.110Z,100751.79
2019-05-21T20:09:31.908Z,100754.89
2019-05-21T20:12:03.269Z,100755.87
2019-05-21T20:14:33.675Z,100762.39
2019-05-21T20:17:05.942Z,100762.52
2019-05-21T20:19:37.845Z,100758.52
2019-05-21T20:22:10.485Z,100767.85
2019-05-21T20:24:42.919Z,100764.36
2019-05-21T20:27:13.531Z,100766.23
2019-05-21T20:29:47.548Z,100776.60
2019-05-21T20:32:21.717Z,100779.48
2019-05-21T20:34:52.543Z,100787.36
2019-05-21T20:37:28.593Z,100792.02
2019-05-21T20:39:59.854Z,100789.44
2019-05-21T20:42:32.180Z,100799.74
2019-05-21T20:45:04.228Z,100792.93
2019-05-21T20:47:35.390Z,100797.23
2019-05-21T20:50:12.037Z,100796.48
2019-05-21T20:52:44.193Z,100800.98
2019-05-21T20:55:16.882Z,100789.44
2019-05-21T20:57:47.724Z,100792.70
2019-05-21T21:00:22.938Z,100795.92
2019-05-21T21:02:54.606Z,100793.37
2019-05-21T21:05:24.950Z,100798.59
2019-05-21T21:07:55.417Z,100796.48
2019-05-21T21:10:26.600Z,100788.30
2019-05-21T21:13:00.067Z,100788.48
2019-05-21T21:15:31.552Z,100791.26
2019-05-21T21:18:03.147Z,100797.70
2019-05-21T21:20:40.620Z,100803.64
2019-05-21T21:23:17.421Z,100802.30
2019-05-21T21:25:49.435Z,100808.05
2019-05-21T21:28:19.839Z,100807.33
2019-05-21T21:30:50.279Z,100818.95
2019-05-21T21:33:21.024Z,100812.48
2019-05-21T21:35:52.055Z,100812.28
2019-05-21T21:38:25.402Z,100811.67
2019-05-21T21:40:56.121Z,100816.03
2019-05-21T21:43:27.228Z,100816.34
2019-05-21T21:45:58.255Z,100821.80
2019-05-21T21:48:29.290Z,100820.16
2019-05-21T21:51:01.068Z,100826.38
2019-05-21T21:53:31.528Z,100821.10
2019-05-21T21:56:02.205Z,100820.80
2019-05-21T21:58:32.644Z,100828.18
2019-05-21T22:01:31.416Z,100825.59
2019-05-21T22:04:05.346Z,100819.87
2019-05-21T22:06:37.763Z,100817.95
2019-05-21T22:09:14.233Z,100816.64
2019-05-21T22:11:45.477Z,100824.95
2019-05-21T22:14:15.673Z,100824.69
2019-05-21T22:16:46.392Z,100820.37
2019-05-21T22:19:17.847Z,100820.74
2019-05-21T22:21:48.283Z,100819.52
2019-05-21T22:24:19.219Z,100816.44
2019-05-21T22:26:49.922Z,100824.74
2019-05-21T22:29:20.673Z,100832.17
2019-05-21T22:31:51.379Z,100825.18
2019-05-21T22:34:22.046Z,100833.43
2019-05-21T22:36:52.200Z,100832.41
2019-05-21T22:39:26.692Z,100833.74
2019-05-21T22:42:02.258Z,100830.23
2019-05-21T22:44:32.884Z,100832.05
2019-05-21T22:47:03.219Z,100841.41
2019-05-21T22:49:34.136Z,100835.14
2019-05-21T22:52:04.335Z,100834.76
2019-05-21T22:54:35.389Z,100839.24
2019-05-21T22:57:05.540Z,100845.95
2019-05-21T22:59:35.654Z,100843.34
2019-05-21T23:02:09.097Z,100839.29
2019-05-21T23:04:39.349Z,100843.28
2019-05-21T23:07:11.348Z,100841.38
2019-05-21T23:09:41.583Z,100839.20
2019-05-21T23:12:12.790Z,100832.38
2019-05-21T23:14:42.952Z,100834.13
2019-05-21T23:17:15.098Z,100835.14
2019-05-21T23:19:47.092Z,100838.92
2019-05-21T23:22:20.118Z,100832.55
2019-05-21T23:24:50.406Z,100834.77
2019-05-21T23:27:20.628Z,100838.61
2019-05-21T23:29:51.026Z,100836.78
2019-05-21T23:32:21.995Z,100839.20
2019-05-21T23:34:53.562Z,100835.20
2019-05-21T23:37:25.342Z,100837.55
2019-05-21T23:39:55.733Z,100826.52
2019-05-21T23:42:30.217Z,100841.91
2019-05-21T23:44:57.982Z,100833.11
2019-05-21T23:47:29.266Z,100841.91
2019-05-21T23:49:59.614Z,100835.77
2019-05-21T23:52:31.014Z,100839.17
2019-05-21T23:55:01.443Z,100842.70
2019-05-21T23:57:33.330Z,100844.50
